sensor_id;sensor_type;location;lat;lon;timestamp;P1;durP1;ratioP1;P2;durP2;ratioP2
40959;SDS011;27842;52.272;8.052;2023-05-10T00:01:45;14.52;;;7.10;;
40959;SDS011;27842;52.272;8.052;2023-05-10T00:04:11;14.80;;;7.70;;
40959;SDS011;27842;52.272;8.052;2023-05-10T00:06:37;12.93;;;6.38;;
40959;SDS011;27842;52.272;8.052;2023-05-10T00:09:02;15.07;;;7.30;;
40959;SDS011;27842;52.272;8.052;2023-05-10T00:11:28;13.82;;;6.78;;
40959;SDS011;27842;52.272;8.052;2023-05-10T00:13:54;12.95;;;6.40;;
40959;SDS011;27842;52.272;8.052;2023-05-10T00:16:20;13.27;;;5.90;;
40959;SDS011;27842;52.272;8.052;2023-05-10T00:18:45;12.45;;;6.30;;
40959;SDS011;27842;52.272;8.052;2023-05-10T00:21:11;12.75;;;5.65;;
40959;SDS011;27842;52.272;8.052;2023-05-10T00:23:36;12.35;;;5.93;;
40959;SDS011;27842;52.272;8.052;2023-05-10T00:26:02;12.98;;;5.80;;
40959;SDS011;27842;52.272;8.052;2023-05-10T00:28:28;12.18;;;6.13;;
40959;SDS011;27842;52.272;8.052;2023-05-10T00:30:56;12.75;;;5.95;;
40959;SDS011;27842;52.272;8.052;2023-05-10T00:33:21;13.40;;;5.85;;
40959;SDS011;27842;52.272;8.052;2023-05-10T00:35:47;11.85;;;5.55;;
40959;SDS011;27842;52.272;8.052;2023-05-10T00:38:12;12.82;;;5.68;;
40959;SDS011;27842;52.272;8.052;2023-05-10T00:40:39;10.25;;;5.10;;
40959;SDS011;27842;52.272;8.052;2023-05-10T00:43:05;11.98;;;4.97;;
40959;SDS011;27842;52.272;8.052;2023-05-10T00:45:33;12.20;;;5.40;;
40959;SDS011;27842;52.272;8.052;2023-05-10T00:48:01;11.00;;;5.32;;
40959;SDS011;27842;52.272;8.052;2023-05-10T00:50:27;10.05;;;5.15;;
40959;SDS011;27842;52.272;8.052;2023-05-10T00:52:53;12.23;;;5.25;;
40959;SDS011;27842;52.272;8.052;2023-05-10T00:55:20;12.30;;;5.13;;
40959;SDS011;27842;52.272;8.052;2023-05-10T00:57:46;10.48;;;4.95;;
40959;SDS011;27842;52.272;8.052;2023-05-10T01:00:12;11.15;;;5.13;;
40959;SDS011;27842;52.272;8.052;2023-05-10T01:02:42;11.30;;;5.28;;
40959;SDS011;27842;52.272;8.052;2023-05-10T01:05:09;11.77;;;5.25;;
40959;SDS011;27842;52.272;8.052;2023-05-10T01:07:35;11.05;;;5.15;;
40959;SDS011;27842;52.272;8.052;2023-05-10T01:10:00;10.85;;;5.40;;
40959;SDS011;27842;52.272;8.052;2023-05-10T01:12:26;10.30;;;5.38;;
40959;SDS011;27842;52.272;8.052;2023-05-10T01:14:52;11.75;;;5.32;;
40959;SDS011;27842;52.272;8.052;2023-05-10T01:17:18;11.45;;;5.15;;
40959;SDS011;27842;52.272;8.052;2023-05-10T01:19:44;11.48;;;5.50;;
40959;SDS011;27842;52.272;8.052;2023-05-10T01:33:15;13.05;;;5.70;;
40959;SDS011;27842;52.272;8.052;2023-05-10T01:35:54;12.23;;;5.38;;
40959;SDS011;27842;52.272;8.052;2023-05-10T01:38:40;12.88;;;5.85;;
40959;SDS011;27842;52.272;8.052;2023-05-10T01:41:19;12.65;;;5.80;;
40959;SDS011;27842;52.272;8.052;2023-05-10T01:43:57;11.30;;;5.38;;
40959;SDS011;27842;52.272;8.052;2023-05-10T01:46:43;13.20;;;5.82;;
40959;SDS011;27842;52.272;8.052;2023-05-10T01:49:20;12.90;;;6.10;;
40959;SDS011;27842;52.272;8.052;2023-05-10T01:51:59;13.23;;;6.28;;
40959;SDS011;27842;52.272;8.052;2023-05-10T01:54:30;12.98;;;6.18;;
40959;SDS011;27842;52.272;8.052;2023-05-10T01:57:00;11.52;;;5.70;;
40959;SDS011;27842;52.272;8.052;2023-05-10T01:59:30;11.27;;;5.30;;
40959;SDS011;27842;52.272;8.052;2023-05-10T02:02:01;8.68;;;4.45;;
40959;SDS011;27842;52.272;8.052;2023-05-10T02:04:29;7.13;;;3.83;;
40959;SDS011;27842;52.272;8.052;2023-05-10T02:06:56;9.63;;;4.47;;
40959;SDS011;27842;52.272;8.052;2023-05-10T02:09:22;8.73;;;3.92;;
40959;SDS011;27842;52.272;8.052;2023-05-10T02:11:49;8.45;;;4.20;;
40959;SDS011;27842;52.272;8.052;2023-05-10T02:14:15;8.43;;;4.28;;
40959;SDS011;27842;52.272;8.052;2023-05-10T02:16:43;9.70;;;3.90;;
40959;SDS011;27842;52.272;8.052;2023-05-10T02:19:11;7.35;;;3.75;;
40959;SDS011;27842;52.272;8.052;2023-05-10T02:21:39;5.83;;;3.03;;
40959;SDS011;27842;52.272;8.052;2023-05-10T02:24:06;8.30;;;3.42;;
40959;SDS011;27842;52.272;8.052;2023-05-10T02:26:34;6.05;;;2.85;;
40959;SDS011;27842;52.272;8.052;2023-05-10T02:29:01;3.60;;;2.40;;
40959;SDS011;27842;52.272;8.052;2023-05-10T02:31:29;2.67;;;1.80;;
40959;SDS011;27842;52.272;8.052;2023-05-10T02:33:57;2.97;;;1.88;;
40959;SDS011;27842;52.272;8.052;2023-05-10T02:36:26;5.18;;;2.00;;
40959;SDS011;27842;52.272;8.052;2023-05-10T02:38:53;3.28;;;1.52;;
40959;SDS011;27842;52.272;8.052;2023-05-10T02:41:21;3.83;;;1.98;;
40959;SDS011;27842;52.272;8.052;2023-05-10T02:43:50;2.75;;;1.30;;
40959;SDS011;27842;52.272;8.052;2023-05-10T02:46:17;3.07;;;1.47;;
40959;SDS011;27842;52.272;8.052;2023-05-10T02:48:43;5.45;;;1.75;;
40959;SDS011;27842;52.272;8.052;2023-05-10T02:51:09;6.68;;;1.92;;
40959;SDS011;27842;52.272;8.052;2023-05-10T02:53:42;4.20;;;1.42;;
40959;SDS011;27842;52.272;8.052;2023-05-10T02:56:12;7.28;;;1.77;;
40959;SDS011;27842;52.272;8.052;2023-05-10T02:58:48;2.28;;;1.20;;
40959;SDS011;27842;52.272;8.052;2023-05-10T03:01:14;5.97;;;1.88;;
40959;SDS011;27842;52.272;8.052;2023-05-10T03:03:40;4.90;;;1.40;;
40959;SDS011;27842;52.272;8.052;2023-05-10T03:06:06;2.85;;;1.08;;
40959;SDS011;27842;52.272;8.052;2023-05-10T03:08:31;3.17;;;1.15;;
40959;SDS011;27842;52.272;8.052;2023-05-10T03:16:16;2.85;;;1.27;;
40959;SDS011;27842;52.272;8.052;2023-05-10T03:19:06;3.50;;;1.63;;
40959;SDS011;27842;52.272;8.052;2023-05-10T03:22:03;4.35;;;1.58;;
40959;SDS011;27842;52.272;8.052;2023-05-10T03:24:31;4.10;;;1.75;;
40959;SDS011;27842;52.272;8.052;2023-05-10T03:27:00;3.95;;;1.50;;
40959;SDS011;27842;52.272;8.052;2023-05-10T03:29:27;3.78;;;1.67;;
40959;SDS011;27842;52.272;8.052;2023-05-10T03:31:54;4.78;;;1.92;;
40959;SDS011;27842;52.272;8.052;2023-05-10T03:34:23;6.05;;;2.35;;
40959;SDS011;27842;52.272;8.052;2023-05-10T03:36:49;4.82;;;2.60;;
40959;SDS011;27842;52.272;8.052;2023-05-10T03:39:15;4.78;;;2.50;;
40959;SDS011;27842;52.272;8.052;2023-05-10T03:41:41;5.25;;;3.03;;
40959;SDS011;27842;52.272;8.052;2023-05-10T03:44:07;6.53;;;3.22;;
40959;SDS011;27842;52.272;8.052;2023-05-10T03:46:32;5.28;;;2.97;;
40959;SDS011;27842;52.272;8.052;2023-05-10T03:48:58;7.43;;;3.40;;
40959;SDS011;27842;52.272;8.052;2023-05-10T03:51:24;6.72;;;3.35;;
40959;SDS011;27842;52.272;8.052;2023-05-10T03:53:53;9.40;;;4.38;;
40959;SDS011;27842;52.272;8.052;2023-05-10T03:56:19;7.22;;;3.63;;
40959;SDS011;27842;52.272;8.052;2023-05-10T03:58:45;8.80;;;4.20;;
40959;SDS011;27842;52.272;8.052;2023-05-10T04:01:11;8.00;;;4.20;;
40959;SDS011;27842;52.272;8.052;2023-05-10T04:03:37;11.45;;;4.50;;
40959;SDS011;27842;52.272;8.052;2023-05-10T04:06:03;8.40;;;4.25;;
40959;SDS011;27842;52.272;8.052;2023-05-10T04:08:29;10.07;;;4.78;;
40959;SDS011;27842;52.272;8.052;2023-05-10T04:11:04;9.05;;;4.70;;
40959;SDS011;27842;52.272;8.052;2023-05-10T04:13:31;11.05;;;4.47;;
40959;SDS011;27842;52.272;8.052;2023-05-10T04:15:57;11.27;;;5.18;;
40959;SDS011;27842;52.272;8.052;2023-05-10T04:18:22;11.35;;;4.50;;
40959;SDS011;27842;52.272;8.052;2023-05-10T04:20:48;9.95;;;4.47;;
40959;SDS011;27842;52.272;8.052;2023-05-10T04:23:13;8.95;;;4.45;;
40959;SDS011;27842;52.272;8.052;2023-05-10T04:25:41;9.77;;;4.43;;
40959;SDS011;27842;52.272;8.052;2023-05-10T04:28:07;8.40;;;4.50;;
40959;SDS011;27842;52.272;8.052;2023-05-10T04:30:32;9.43;;;4.47;;
40959;SDS011;27842;52.272;8.052;2023-05-10T04:32:58;10.07;;;4.53;;
40959;SDS011;27842;52.272;8.052;2023-05-10T04:35:24;9.05;;;4.78;;
40959;SDS011;27842;52.272;8.052;2023-05-10T04:37:49;8.75;;;4.22;;
40959;SDS011;27842;52.272;8.052;2023-05-10T04:40:15;8.82;;;4.07;;
40959;SDS011;27842;52.272;8.052;2023-05-10T04:42:40;9.40;;;4.43;;
40959;SDS011;27842;52.272;8.052;2023-05-10T04:45:06;9.25;;;4.55;;
40959;SDS011;27842;52.272;8.052;2023-05-10T04:47:32;10.68;;;4.10;;
40959;SDS011;27842;52.272;8.052;2023-05-10T04:49:58;10.23;;;4.47;;
40959;SDS011;27842;52.272;8.052;2023-05-10T04:52:23;9.13;;;3.90;;
40959;SDS011;27842;52.272;8.052;2023-05-10T04:54:51;8.43;;;3.90;;
40959;SDS011;27842;52.272;8.052;2023-05-10T04:57:17;7.60;;;3.42;;
40959;SDS011;27842;52.272;8.052;2023-05-10T04:59:43;7.53;;;3.78;;
40959;SDS011;27842;52.272;8.052;2023-05-10T05:02:08;8.45;;;3.63;;
40959;SDS011;27842;52.272;8.052;2023-05-10T05:04:34;9.00;;;3.78;;
40959;SDS011;27842;52.272;8.052;2023-05-10T05:06:59;8.07;;;3.38;;
40959;SDS011;27842;52.272;8.052;2023-05-10T05:09:25;8.05;;;3.65;;
40959;SDS011;27842;52.272;8.052;2023-05-10T05:11:50;9.48;;;3.53;;
40959;SDS011;27842;52.272;8.052;2023-05-10T05:14:16;8.23;;;3.80;;
40959;SDS011;27842;52.272;8.052;2023-05-10T05:16:42;9.48;;;3.78;;
40959;SDS011;27842;52.272;8.052;2023-05-10T05:19:07;9.13;;;4.30;;
40959;SDS011;27842;52.272;8.052;2023-05-10T05:28:43;11.30;;;4.50;;
40959;SDS011;27842;52.272;8.052;2023-05-10T05:31:09;12.80;;;5.50;;
40959;SDS011;27842;52.272;8.052;2023-05-10T05:33:34;11.18;;;5.20;;
40959;SDS011;27842;52.272;8.052;2023-05-10T05:36:00;13.43;;;5.70;;
40959;SDS011;27842;52.272;8.052;2023-05-10T05:38:27;13.63;;;5.80;;
40959;SDS011;27842;52.272;8.052;2023-05-10T05:40:52;12.57;;;5.38;;
40959;SDS011;27842;52.272;8.052;2023-05-10T05:43:18;12.07;;;5.88;;
40959;SDS011;27842;52.272;8.052;2023-05-10T05:45:43;10.40;;;5.18;;
40959;SDS011;27842;52.272;8.052;2023-05-10T05:48:09;11.93;;;5.40;;
40959;SDS011;27842;52.272;8.052;2023-05-10T05:50:34;12.70;;;5.75;;
40959;SDS011;27842;52.272;8.052;2023-05-10T05:53:00;9.77;;;4.72;;
40959;SDS011;27842;52.272;8.052;2023-05-10T05:55:25;10.68;;;4.90;;
40959;SDS011;27842;52.272;8.052;2023-05-10T05:57:51;12.63;;;4.65;;
40959;SDS011;27842;52.272;8.052;2023-05-10T06:00:17;10.40;;;4.80;;
40959;SDS011;27842;52.272;8.052;2023-05-10T06:02:42;10.68;;;4.70;;
40959;SDS011;27842;52.272;8.052;2023-05-10T06:05:08;10.60;;;4.90;;
40959;SDS011;27842;52.272;8.052;2023-05-10T06:07:34;9.70;;;4.50;;
40959;SDS011;27842;52.272;8.052;2023-05-10T06:09:59;10.93;;;4.38;;
40959;SDS011;27842;52.272;8.052;2023-05-10T06:12:25;7.93;;;3.90;;
40959;SDS011;27842;52.272;8.052;2023-05-10T06:14:50;9.63;;;4.25;;
40959;SDS011;27842;52.272;8.052;2023-05-10T06:17:16;9.70;;;4.25;;
40959;SDS011;27842;52.272;8.052;2023-05-10T06:19:42;10.15;;;4.03;;
40959;SDS011;27842;52.272;8.052;2023-05-10T06:22:07;9.48;;;4.00;;
40959;SDS011;27842;52.272;8.052;2023-05-10T06:24:33;11.80;;;4.05;;
40959;SDS011;27842;52.272;8.052;2023-05-10T06:26:58;8.35;;;3.67;;
40959;SDS011;27842;52.272;8.052;2023-05-10T06:29:25;11.18;;;4.00;;
40959;SDS011;27842;52.272;8.052;2023-05-10T06:31:51;10.90;;;4.13;;
40959;SDS011;27842;52.272;8.052;2023-05-10T06:34:16;9.60;;;4.38;;
40959;SDS011;27842;52.272;8.052;2023-05-10T06:36:42;10.13;;;4.22;;
40959;SDS011;27842;52.272;8.052;2023-05-10T06:39:07;9.50;;;4.28;;
40959;SDS011;27842;52.272;8.052;2023-05-10T06:41:33;12.40;;;5.03;;
40959;SDS011;27842;52.272;8.052;2023-05-10T06:43:58;11.98;;;5.07;;
40959;SDS011;27842;52.272;8.052;2023-05-10T06:46:24;11.90;;;4.82;;
40959;SDS011;27842;52.272;8.052;2023-05-10T06:48:49;12.30;;;4.88;;
40959;SDS011;27842;52.272;8.052;2023-05-10T06:51:15;12.57;;;5.22;;
40959;SDS011;27842;52.272;8.052;2023-05-10T06:53:41;14.98;;;5.70;;
40959;SDS011;27842;52.272;8.052;2023-05-10T06:56:06;13.77;;;5.80;;
40959;SDS011;27842;52.272;8.052;2023-05-10T06:58:32;14.20;;;6.32;;
40959;SDS011;27842;52.272;8.052;2023-05-10T07:01:01;15.15;;;6.82;;
40959;SDS011;27842;52.272;8.052;2023-05-10T07:03:28;12.93;;;6.15;;
40959;SDS011;27842;52.272;8.052;2023-05-10T07:05:53;16.63;;;7.63;;
40959;SDS011;27842;52.272;8.052;2023-05-10T07:08:20;14.10;;;7.05;;
40959;SDS011;27842;52.272;8.052;2023-05-10T07:10:45;15.70;;;7.20;;
40959;SDS011;27842;52.272;8.052;2023-05-10T07:13:11;15.90;;;7.70;;
40959;SDS011;27842;52.272;8.052;2023-05-10T07:15:36;17.52;;;8.32;;
40959;SDS011;27842;52.272;8.052;2023-05-10T07:18:02;17.88;;;8.23;;
40959;SDS011;27842;52.272;8.052;2023-05-10T07:20:29;18.58;;;9.23;;
40959;SDS011;27842;52.272;8.052;2023-05-10T07:22:54;18.60;;;8.63;;
40959;SDS011;27842;52.272;8.052;2023-05-10T07:25:20;20.73;;;9.60;;
40959;SDS011;27842;52.272;8.052;2023-05-10T07:27:45;18.88;;;9.57;;
40959;SDS011;27842;52.272;8.052;2023-05-10T07:30:13;20.70;;;9.82;;
40959;SDS011;27842;52.272;8.052;2023-05-10T07:32:38;18.88;;;9.80;;
40959;SDS011;27842;52.272;8.052;2023-05-10T07:35:06;21.73;;;10.90;;
40959;SDS011;27842;52.272;8.052;2023-05-10T07:37:32;21.13;;;10.68;;
40959;SDS011;27842;52.272;8.052;2023-05-10T07:39:58;22.38;;;11.70;;
40959;SDS011;27842;52.272;8.052;2023-05-10T07:42:23;22.48;;;12.30;;
40959;SDS011;27842;52.272;8.052;2023-05-10T07:44:49;22.52;;;12.10;;
40959;SDS011;27842;52.272;8.052;2023-05-10T07:47:15;25.20;;;12.68;;
40959;SDS011;27842;52.272;8.052;2023-05-10T07:49:40;21.92;;;11.55;;
40959;SDS011;27842;52.272;8.052;2023-05-10T07:52:06;25.15;;;13.60;;
40959;SDS011;27842;52.272;8.052;2023-05-10T07:54:31;23.77;;;13.00;;
40959;SDS011;27842;52.272;8.052;2023-05-10T07:56:57;23.85;;;12.55;;
40959;SDS011;27842;52.272;8.052;2023-05-10T07:59:22;22.25;;;12.45;;
40959;SDS011;27842;52.272;8.052;2023-05-10T08:01:48;23.95;;;12.90;;
40959;SDS011;27842;52.272;8.052;2023-05-10T08:04:14;23.88;;;13.00;;
40959;SDS011;27842;52.272;8.052;2023-05-10T08:06:39;25.17;;;12.75;;
40959;SDS011;27842;52.272;8.052;2023-05-10T08:09:05;25.92;;;13.80;;
40959;SDS011;27842;52.272;8.052;2023-05-10T08:11:31;25.02;;;13.15;;
40959;SDS011;27842;52.272;8.052;2023-05-10T08:13:56;25.27;;;14.00;;
40959;SDS011;27842;52.272;8.052;2023-05-10T08:16:22;25.13;;;13.32;;
40959;SDS011;27842;52.272;8.052;2023-05-10T08:18:47;26.67;;;14.77;;
40959;SDS011;27842;52.272;8.052;2023-05-10T08:21:14;27.73;;;14.32;;
40959;SDS011;27842;52.272;8.052;2023-05-10T08:23:40;28.48;;;15.15;;
40959;SDS011;27842;52.272;8.052;2023-05-10T08:26:06;27.70;;;14.98;;
40959;SDS011;27842;52.272;8.052;2023-05-10T08:28:31;28.42;;;14.98;;
40959;SDS011;27842;52.272;8.052;2023-05-10T08:30:57;29.08;;;16.25;;
40959;SDS011;27842;52.272;8.052;2023-05-10T08:33:22;28.58;;;15.80;;
40959;SDS011;27842;52.272;8.052;2023-05-10T08:35:48;24.98;;;14.05;;
40959;SDS011;27842;52.272;8.052;2023-05-10T08:38:14;26.88;;;14.93;;
40959;SDS011;27842;52.272;8.052;2023-05-10T08:40:43;28.25;;;15.75;;
40959;SDS011;27842;52.272;8.052;2023-05-10T08:43:10;26.48;;;14.02;;
40959;SDS011;27842;52.272;8.052;2023-05-10T08:45:38;27.83;;;14.63;;
40959;SDS011;27842;52.272;8.052;2023-05-10T08:48:05;25.08;;;13.82;;
40959;SDS011;27842;52.272;8.052;2023-05-10T08:50:33;28.20;;;15.93;;
40959;SDS011;27842;52.272;8.052;2023-05-10T08:53:02;27.52;;;14.35;;
40959;SDS011;27842;52.272;8.052;2023-05-10T08:55:30;29.52;;;14.50;;
40959;SDS011;27842;52.272;8.052;2023-05-10T08:57:58;25.15;;;14.30;;
40959;SDS011;27842;52.272;8.052;2023-05-10T09:00:25;27.33;;;14.13;;
40959;SDS011;27842;52.272;8.052;2023-05-10T09:02:52;26.45;;;13.98;;
40959;SDS011;27842;52.272;8.052;2023-05-10T09:05:18;31.30;;;15.43;;
40959;SDS011;27842;52.272;8.052;2023-05-10T09:07:45;30.08;;;16.63;;
40959;SDS011;27842;52.272;8.052;2023-05-10T09:10:10;28.90;;;15.88;;
40959;SDS011;27842;52.272;8.052;2023-05-10T09:12:37;31.15;;;16.20;;
40959;SDS011;27842;52.272;8.052;2023-05-10T09:15:04;28.42;;;15.40;;
40959;SDS011;27842;52.272;8.052;2023-05-10T09:17:32;30.20;;;15.15;;
40959;SDS011;27842;52.272;8.052;2023-05-10T09:19:58;31.27;;;17.15;;
40959;SDS011;27842;52.272;8.052;2023-05-10T09:22:25;29.23;;;14.80;;
40959;SDS011;27842;52.272;8.052;2023-05-10T09:25:10;28.63;;;15.10;;
40959;SDS011;27842;52.272;8.052;2023-05-10T09:27:40;27.95;;;14.85;;
40959;SDS011;27842;52.272;8.052;2023-05-10T09:30:09;27.38;;;14.43;;
40959;SDS011;27842;52.272;8.052;2023-05-10T09:32:43;26.88;;;14.73;;
40959;SDS011;27842;52.272;8.052;2023-05-10T09:35:10;26.75;;;14.23;;
40959;SDS011;27842;52.272;8.052;2023-05-10T09:37:41;25.30;;;14.10;;
40959;SDS011;27842;52.272;8.052;2023-05-10T09:40:12;27.27;;;14.00;;
40959;SDS011;27842;52.272;8.052;2023-05-10T09:42:38;26.77;;;14.60;;
40959;SDS011;27842;52.272;8.052;2023-05-10T09:45:04;24.98;;;13.18;;
40959;SDS011;27842;52.272;8.052;2023-05-10T09:47:36;26.05;;;13.18;;
40959;SDS011;27842;52.272;8.052;2023-05-10T09:50:02;24.33;;;14.38;;
40959;SDS011;27842;52.272;8.052;2023-05-10T09:52:48;26.33;;;14.20;;
40959;SDS011;27842;52.272;8.052;2023-05-10T09:55:19;26.48;;;14.70;;
40959;SDS011;27842;52.272;8.052;2023-05-10T09:57:47;27.88;;;14.05;;
40959;SDS011;27842;52.272;8.052;2023-05-10T10:00:19;25.33;;;13.43;;
40959;SDS011;27842;52.272;8.052;2023-05-10T10:02:53;32.30;;;14.55;;
40959;SDS011;27842;52.272;8.052;2023-05-10T10:05:20;28.42;;;14.98;;
40959;SDS011;27842;52.272;8.052;2023-05-10T10:07:46;28.27;;;15.07;;
40959;SDS011;27842;52.272;8.052;2023-05-10T10:10:14;29.25;;;15.73;;
40959;SDS011;27842;52.272;8.052;2023-05-10T10:12:40;26.08;;;14.50;;
40959;SDS011;27842;52.272;8.052;2023-05-10T10:15:07;24.55;;;13.70;;
40959;SDS011;27842;52.272;8.052;2023-05-10T10:17:34;26.48;;;14.30;;
40959;SDS011;27842;52.272;8.052;2023-05-10T10:20:02;24.10;;;13.63;;
40959;SDS011;27842;52.272;8.052;2023-05-10T10:22:32;26.98;;;14.52;;
40959;SDS011;27842;52.272;8.052;2023-05-10T10:24:58;26.23;;;13.75;;
40959;SDS011;27842;52.272;8.052;2023-05-10T10:27:25;23.92;;;13.10;;
40959;SDS011;27842;52.272;8.052;2023-05-10T10:33:06;28.60;;;13.68;;
40959;SDS011;27842;52.272;8.052;2023-05-10T10:35:54;24.20;;;13.80;;
40959;SDS011;27842;52.272;8.052;2023-05-10T10:38:22;25.42;;;13.02;;
40959;SDS011;27842;52.272;8.052;2023-05-10T10:52:55;23.45;;;11.43;;
40959;SDS011;27842;52.272;8.052;2023-05-10T10:55:46;21.45;;;9.93;;
40959;SDS011;27842;52.272;8.052;2023-05-10T10:58:30;22.55;;;9.60;;
40959;SDS011;27842;52.272;8.052;2023-05-10T11:01:18;20.90;;;10.35;;
40959;SDS011;27842;52.272;8.052;2023-05-10T11:06:31;21.35;;;9.23;;
40959;SDS011;27842;52.272;8.052;2023-05-10T11:08:58;19.73;;;9.75;;
40959;SDS011;27842;52.272;8.052;2023-05-10T11:11:24;21.67;;;9.82;;
40959;SDS011;27842;52.272;8.052;2023-05-10T11:13:50;20.40;;;9.98;;
40959;SDS011;27842;52.272;8.052;2023-05-10T11:16:17;23.45;;;10.75;;
40959;SDS011;27842;52.272;8.052;2023-05-10T11:19:05;25.65;;;10.98;;
40959;SDS011;27842;52.272;8.052;2023-05-10T11:21:33;26.95;;;11.68;;
40959;SDS011;27842;52.272;8.052;2023-05-10T11:24:00;21.58;;;10.88;;
40959;SDS011;27842;52.272;8.052;2023-05-10T11:26:31;22.00;;;10.55;;
40959;SDS011;27842;52.272;8.052;2023-05-10T11:28:57;22.33;;;10.63;;
40959;SDS011;27842;52.272;8.052;2023-05-10T11:31:25;24.98;;;10.73;;
40959;SDS011;27842;52.272;8.052;2023-05-10T11:33:55;21.35;;;10.15;;
40959;SDS011;27842;52.272;8.052;2023-05-10T11:36:23;21.45;;;10.20;;
40959;SDS011;27842;52.272;8.052;2023-05-10T11:38:54;21.02;;;10.30;;
40959;SDS011;27842;52.272;8.052;2023-05-10T11:41:21;21.33;;;9.25;;
40959;SDS011;27842;52.272;8.052;2023-05-10T11:43:49;19.45;;;8.90;;
40959;SDS011;27842;52.272;8.052;2023-05-10T11:46:16;15.85;;;6.80;;
40959;SDS011;27842;52.272;8.052;2023-05-10T11:48:45;19.77;;;7.60;;
40959;SDS011;27842;52.272;8.052;2023-05-10T11:51:12;17.20;;;7.47;;
40959;SDS011;27842;52.272;8.052;2023-05-10T11:53:37;20.13;;;8.63;;
40959;SDS011;27842;52.272;8.052;2023-05-10T11:56:12;18.30;;;8.43;;
40959;SDS011;27842;52.272;8.052;2023-05-10T11:58:38;18.00;;;8.02;;
40959;SDS011;27842;52.272;8.052;2023-05-10T12:01:05;19.70;;;8.50;;
40959;SDS011;27842;52.272;8.052;2023-05-10T12:03:31;19.08;;;8.05;;
40959;SDS011;27842;52.272;8.052;2023-05-10T12:05:57;18.95;;;8.10;;
40959;SDS011;27842;52.272;8.052;2023-05-10T12:08:24;21.98;;;10.00;;
40959;SDS011;27842;52.272;8.052;2023-05-10T12:10:52;22.92;;;9.80;;
40959;SDS011;27842;52.272;8.052;2023-05-10T12:13:19;21.65;;;9.98;;
40959;SDS011;27842;52.272;8.052;2023-05-10T12:15:46;20.58;;;9.80;;
40959;SDS011;27842;52.272;8.052;2023-05-10T12:18:12;22.67;;;9.00;;
40959;SDS011;27842;52.272;8.052;2023-05-10T12:20:39;22.52;;;9.50;;
40959;SDS011;27842;52.272;8.052;2023-05-10T12:23:05;19.30;;;8.90;;
40959;SDS011;27842;52.272;8.052;2023-05-10T12:25:33;18.52;;;8.38;;
40959;SDS011;27842;52.272;8.052;2023-05-10T12:28:00;20.33;;;8.57;;
40959;SDS011;27842;52.272;8.052;2023-05-10T12:30:30;18.80;;;7.68;;
40959;SDS011;27842;52.272;8.052;2023-05-10T12:33:13;19.45;;;8.45;;
40959;SDS011;27842;52.272;8.052;2023-05-10T12:35:45;20.27;;;8.75;;
40959;SDS011;27842;52.272;8.052;2023-05-10T12:38:24;21.80;;;8.07;;
40959;SDS011;27842;52.272;8.052;2023-05-10T12:41:07;20.63;;;8.50;;
40959;SDS011;27842;52.272;8.052;2023-05-10T12:43:33;19.45;;;8.00;;
40959;SDS011;27842;52.272;8.052;2023-05-10T12:46:13;20.15;;;8.35;;
40959;SDS011;27842;52.272;8.052;2023-05-10T12:48:40;21.40;;;8.98;;
40959;SDS011;27842;52.272;8.052;2023-05-10T12:51:07;20.33;;;9.10;;
40959;SDS011;27842;52.272;8.052;2023-05-10T12:53:34;19.48;;;8.60;;
40959;SDS011;27842;52.272;8.052;2023-05-10T12:56:00;18.90;;;8.00;;
40959;SDS011;27842;52.272;8.052;2023-05-10T12:58:26;18.92;;;8.88;;
40959;SDS011;27842;52.272;8.052;2023-05-10T13:00:52;19.42;;;8.48;;
40959;SDS011;27842;52.272;8.052;2023-05-10T13:03:18;18.35;;;8.23;;
40959;SDS011;27842;52.272;8.052;2023-05-10T13:05:43;19.70;;;8.98;;
40959;SDS011;27842;52.272;8.052;2023-05-10T13:08:09;19.08;;;8.73;;
40959;SDS011;27842;52.272;8.052;2023-05-10T13:10:35;17.85;;;7.65;;
40959;SDS011;27842;52.272;8.052;2023-05-10T13:13:01;21.27;;;7.32;;
40959;SDS011;27842;52.272;8.052;2023-05-10T13:15:27;18.23;;;7.57;;
40959;SDS011;27842;52.272;8.052;2023-05-10T13:17:53;18.15;;;7.28;;
40959;SDS011;27842;52.272;8.052;2023-05-10T13:20:19;17.05;;;6.97;;
40959;SDS011;27842;52.272;8.052;2023-05-10T13:22:45;19.25;;;8.38;;
40959;SDS011;27842;52.272;8.052;2023-05-10T13:25:11;20.67;;;9.23;;
40959;SDS011;27842;52.272;8.052;2023-05-10T13:27:38;21.85;;;9.43;;
40959;SDS011;27842;52.272;8.052;2023-05-10T13:30:04;20.58;;;8.57;;
40959;SDS011;27842;52.272;8.052;2023-05-10T13:32:31;19.77;;;8.95;;
40959;SDS011;27842;52.272;8.052;2023-05-10T13:34:56;20.70;;;9.45;;
40959;SDS011;27842;52.272;8.052;2023-05-10T13:37:22;20.45;;;8.98;;
40959;SDS011;27842;52.272;8.052;2023-05-10T13:39:47;21.30;;;9.77;;
40959;SDS011;27842;52.272;8.052;2023-05-10T13:42:13;21.27;;;10.27;;
40959;SDS011;27842;52.272;8.052;2023-05-10T13:44:39;22.63;;;10.07;;
40959;SDS011;27842;52.272;8.052;2023-05-10T13:47:05;20.98;;;8.63;;
40959;SDS011;27842;52.272;8.052;2023-05-10T13:49:30;20.30;;;8.88;;
40959;SDS011;27842;52.272;8.052;2023-05-10T13:51:56;22.50;;;9.40;;
40959;SDS011;27842;52.272;8.052;2023-05-10T13:54:23;21.45;;;8.95;;
40959;SDS011;27842;52.272;8.052;2023-05-10T13:56:49;19.55;;;9.15;;
40959;SDS011;27842;52.272;8.052;2023-05-10T13:59:15;20.67;;;9.25;;
40959;SDS011;27842;52.272;8.052;2023-05-10T14:01:41;18.33;;;8.50;;
40959;SDS011;27842;52.272;8.052;2023-05-10T14:04:07;20.05;;;8.80;;
40959;SDS011;27842;52.272;8.052;2023-05-10T14:06:35;21.75;;;8.82;;
40959;SDS011;27842;52.272;8.052;2023-05-10T14:09:01;21.92;;;10.15;;
40959;SDS011;27842;52.272;8.052;2023-05-10T14:11:27;21.20;;;9.25;;
40959;SDS011;27842;52.272;8.052;2023-05-10T14:13:53;21.85;;;10.07;;
40959;SDS011;27842;52.272;8.052;2023-05-10T14:16:18;22.27;;;8.95;;
40959;SDS011;27842;52.272;8.052;2023-05-10T14:18:45;20.08;;;8.73;;
40959;SDS011;27842;52.272;8.052;2023-05-10T14:21:11;19.98;;;9.77;;
40959;SDS011;27842;52.272;8.052;2023-05-10T14:23:36;19.70;;;8.50;;
40959;SDS011;27842;52.272;8.052;2023-05-10T14:26:02;18.85;;;9.43;;
40959;SDS011;27842;52.272;8.052;2023-05-10T14:28:28;20.17;;;8.30;;
40959;SDS011;27842;52.272;8.052;2023-05-10T14:30:53;18.10;;;8.57;;
40959;SDS011;27842;52.272;8.052;2023-05-10T14:33:19;20.40;;;9.63;;
40959;SDS011;27842;52.272;8.052;2023-05-10T14:35:45;18.30;;;8.82;;
40959;SDS011;27842;52.272;8.052;2023-05-10T14:38:11;17.73;;;7.88;;
40959;SDS011;27842;52.272;8.052;2023-05-10T14:40:38;18.60;;;8.27;;
40959;SDS011;27842;52.272;8.052;2023-05-10T14:43:03;19.65;;;8.43;;
40959;SDS011;27842;52.272;8.052;2023-05-10T14:45:29;17.75;;;8.20;;
40959;SDS011;27842;52.272;8.052;2023-05-10T14:47:54;17.85;;;8.35;;
40959;SDS011;27842;52.272;8.052;2023-05-10T14:50:20;18.17;;;8.15;;
40959;SDS011;27842;52.272;8.052;2023-05-10T14:52:45;17.63;;;8.02;;
40959;SDS011;27842;52.272;8.052;2023-05-10T14:55:11;19.38;;;8.15;;
40959;SDS011;27842;52.272;8.052;2023-05-10T14:57:37;17.88;;;8.05;;
40959;SDS011;27842;52.272;8.052;2023-05-10T15:00:02;19.52;;;7.65;;
40959;SDS011;27842;52.272;8.052;2023-05-10T15:02:29;19.42;;;7.88;;
40959;SDS011;27842;52.272;8.052;2023-05-10T15:04:56;16.65;;;7.57;;
40959;SDS011;27842;52.272;8.052;2023-05-10T15:07:22;15.68;;;6.57;;
40959;SDS011;27842;52.272;8.052;2023-05-10T15:09:48;16.77;;;7.15;;
40959;SDS011;27842;52.272;8.052;2023-05-10T15:12:15;14.15;;;5.85;;
40959;SDS011;27842;52.272;8.052;2023-05-10T15:14:40;16.45;;;6.28;;
40959;SDS011;27842;52.272;8.052;2023-05-10T15:17:06;15.48;;;6.28;;